createdAt,value
2023-03-29T00:01:51.991Z,45.30
2023-03-29T00:05:23.124Z,41.40
2023-03-29T00:08:54.157Z,51.30
2023-03-29T00:12:21.424Z,46.20
2023-03-29T00:15:48.403Z,48.20
2023-03-29T00:19:15.816Z,45.40
2023-03-29T00:22:46.650Z,44.90
2023-03-29T00:26:13.917Z,44.00
2023-03-29T00:29:41.134Z,40.00
2023-03-29T00:33:08.704Z,40.00
2023-03-29T00:36:35.859Z,45.10
2023-03-29T00:40:04.897Z,33.30
2023-03-29T00:43:32.252Z,40.30
2023-03-29T00:47:00.046Z,37.50
2023-03-29T00:50:30.892Z,36.70
2023-03-29T00:54:01.534Z,36.50
2023-03-29T00:57:30.749Z,39.10
2023-03-29T01:01:05.060Z,38.50
2023-03-29T01:04:37.831Z,40.80
2023-03-29T01:08:08.131Z,36.20
2023-03-29T01:11:39.917Z,39.80
2023-03-29T01:15:11.268Z,39.20
2023-03-29T01:18:39.834Z,46.10
2023-03-29T01:22:19.293Z,45.10
2023-03-29T01:25:55.430Z,41.90
2023-03-29T01:29:29.018Z,38.30
2023-03-29T01:33:00.343Z,39.70
2023-03-29T01:36:35.060Z,44.70
2023-03-29T01:40:05.186Z,49.70
2023-03-29T01:43:37.567Z,40.80
2023-03-29T01:47:13.412Z,39.50
2023-03-29T01:50:48.872Z,40.90
2023-03-29T01:54:21.051Z,34.50
2023-03-29T01:57:54.176Z,37.90
2023-03-29T02:01:27.155Z,35.70
2023-03-29T02:04:57.739Z,40.60
2023-03-29T02:08:25.854Z,47.30
2023-03-29T02:11:54.774Z,52.90
2023-03-29T02:15:23.580Z,46.80
2023-03-29T02:18:54.267Z,38.00
2023-03-29T02:22:28.573Z,46.30
2023-03-29T02:25:57.853Z,39.30
2023-03-29T02:29:26.286Z,39.10
2023-03-29T02:32:59.575Z,49.10
2023-03-29T02:36:32.204Z,41.70
2023-03-29T02:40:00.796Z,50.90
2023-03-29T02:43:30.269Z,44.00
2023-03-29T02:47:02.274Z,44.60
2023-03-29T02:50:35.531Z,37.40
2023-03-29T02:54:07.012Z,45.70
2023-03-29T02:57:35.693Z,45.00
2023-03-29T03:01:05.322Z,49.80
2023-03-29T03:04:34.210Z,44.80
2023-03-29T03:08:02.772Z,50.00
2023-03-29T03:11:29.992Z,57.90
2023-03-29T03:14:57.464Z,49.10
2023-03-29T03:18:24.616Z,47.30
2023-03-29T03:21:52.195Z,62.10
2023-03-29T03:25:21.270Z,56.70
2023-03-29T03:28:48.995Z,77.10
2023-03-29T03:32:43.659Z,79.60
2023-03-29T03:36:37.172Z,79.70
2023-03-29T03:40:05.725Z,83.00
2023-03-29T03:43:33.903Z,83.20
2023-03-29T03:47:01.177Z,93.70
2023-03-29T03:50:28.278Z,108.00
2023-03-29T03:53:55.668Z,127.20
2023-03-29T03:57:45.775Z,117.90
2023-03-29T04:01:14.879Z,136.70
2023-03-29T04:04:46.370Z,102.90
2023-03-29T04:08:17.708Z,115.80
2023-03-29T04:12:14.404Z,103.10
2023-03-29T04:15:41.875Z,119.60
2023-03-29T04:19:09.941Z,109.70
2023-03-29T04:22:37.163Z,90.50
2023-03-29T04:26:04.539Z,121.80
2023-03-29T04:29:57.988Z,98.50
2023-03-29T04:33:37.584Z,89.50
2023-03-29T04:37:10.694Z,101.90
2023-03-29T04:40:40.378Z,91.20
2023-03-29T04:44:14.346Z,86.90
2023-03-29T04:47:42.137Z,85.70
2023-03-29T04:51:15.180Z,84.50
2023-03-29T04:54:45.833Z,82.40
2023-03-29T04:58:30.221Z,80.40
2023-03-29T05:02:00.963Z,91.70
2023-03-29T05:05:28.533Z,87.50
2023-03-29T05:08:56.426Z,81.90
2023-03-29T05:12:28.351Z,83.80
2023-03-29T05:15:57.327Z,86.20
2023-03-29T05:19:25.491Z,91.30
2023-03-29T05:22:53.311Z,78.80
2023-03-29T05:26:59.648Z,69.30
2023-03-29T05:34:18.736Z,87.70
2023-03-29T05:37:49.923Z,96.50
2023-03-29T05:41:18.670Z,90.50
2023-03-29T05:45:13.180Z,79.00
2023-03-29T05:48:40.528Z,75.40
2023-03-29T05:52:08.030Z,61.60
2023-03-29T05:55:35.968Z,44.50
2023-03-29T05:59:03.068Z,37.80
2023-03-29T06:02:30.288Z,29.10
2023-03-29T06:06:03.887Z,29.50
2023-03-29T06:09:32.141Z,28.30
2023-03-29T06:13:02.495Z,27.30
2023-03-29T06:16:32.540Z,28.00
2023-03-29T06:20:00.143Z,28.70
2023-03-29T06:23:28.353Z,42.00
2023-03-29T06:26:56.521Z,25.40
2023-03-29T06:30:23.906Z,31.70
2023-03-29T06:33:53.302Z,22.00
2023-03-29T06:37:54.594Z,24.60
2023-03-29T06:41:30.636Z,23.70
2023-03-29T06:45:07.821Z,23.00
2023-03-29T06:48:38.638Z,21.60
2023-03-29T06:52:07.844Z,22.00
2023-03-29T06:55:36.125Z,26.40
2023-03-29T06:59:19.229Z,22.60
2023-03-29T07:03:01.626Z,17.90
2023-03-29T07:06:28.779Z,22.30
2023-03-29T07:09:57.642Z,26.50
2023-03-29T07:13:44.418Z,19.60
2023-03-29T07:17:13.872Z,20.90
2023-03-29T07:20:42.628Z,23.20
2023-03-29T07:24:10.290Z,29.70
2023-03-29T07:27:38.224Z,25.40
2023-03-29T07:31:11.121Z,19.70
2023-03-29T07:34:46.281Z,17.50
2023-03-29T07:38:20.623Z,34.10
2023-03-29T07:42:01.089Z,22.10
2023-03-29T07:45:29.836Z,26.80
2023-03-29T07:49:03.024Z,21.00
2023-03-29T07:52:30.226Z,18.80
2023-03-29T07:56:00.339Z,21.20
2023-03-29T07:59:36.194Z,21.70
2023-03-29T08:03:09.424Z,18.10
2023-03-29T08:06:36.770Z,17.90
2023-03-29T08:10:04.591Z,16.40
2023-03-29T08:13:51.506Z,20.10
2023-03-29T08:17:21.399Z,18.50
2023-03-29T08:20:51.072Z,18.00
2023-03-29T08:24:20.807Z,17.60
2023-03-29T08:27:51.484Z,16.10
2023-03-29T08:31:28.760Z,14.10
2023-03-29T08:34:56.492Z,15.30
2023-03-29T08:38:28.821Z,17.30
2023-03-29T08:42:13.303Z,16.20
2023-03-29T08:45:49.627Z,26.90
2023-03-29T08:49:20.041Z,15.30
2023-03-29T08:52:52.881Z,20.50
2023-03-29T08:56:46.804Z,12.40
2023-03-29T09:00:33.772Z,16.20
2023-03-29T09:04:09.053Z,14.50
2023-03-29T09:07:50.281Z,15.00
2023-03-29T09:11:34.026Z,16.50
2023-03-29T09:15:11.803Z,18.20
2023-03-29T09:18:52.476Z,16.10
2023-03-29T09:22:32.576Z,12.80
2023-03-29T09:26:07.069Z,14.90
2023-03-29T09:30:19.355Z,11.40
2023-03-29T09:33:59.272Z,14.30
2023-03-29T09:37:41.299Z,13.50
2023-03-29T09:41:16.202Z,15.50
2023-03-29T09:44:48.785Z,11.30
2023-03-29T09:48:21.015Z,17.20
2023-03-29T09:51:55.862Z,14.80
2023-03-29T09:55:27.642Z,16.50
2023-03-29T09:59:07.369Z,11.60
2023-03-29T10:02:35.579Z,13.10
2023-03-29T10:06:05.302Z,13.40
2023-03-29T10:09:34.244Z,16.20
2023-03-29T10:13:23.151Z,12.40
2023-03-29T10:16:57.754Z,10.00
2023-03-29T10:20:28.237Z,7.60
2023-03-29T10:24:01.360Z,6.60
2023-03-29T10:27:30.237Z,9.30
2023-03-29T10:31:01.270Z,11.50
2023-03-29T10:34:28.604Z,11.80
2023-03-29T10:37:59.441Z,10.40
2023-03-29T10:41:29.758Z,12.50
2023-03-29T10:44:59.118Z,14.80
2023-03-29T10:48:32.263Z,23.10
2023-03-29T10:51:59.386Z,11.80
2023-03-29T10:55:33.614Z,11.80
2023-03-29T10:59:18.058Z,14.80
2023-03-29T11:03:19.505Z,10.80
2023-03-29T11:06:53.537Z,8.80
2023-03-29T11:10:38.441Z,12.60
2023-03-29T11:14:10.509Z,12.00
2023-03-29T11:17:53.558Z,9.70
2023-03-29T11:21:28.606Z,12.40
2023-03-29T11:25:11.478Z,9.00
2023-03-29T11:28:46.617Z,11.20
2023-03-29T11:32:23.406Z,13.50
2023-03-29T11:36:00.217Z,11.90
2023-03-29T11:39:41.806Z,12.80
2023-03-29T11:43:14.262Z,14.30
2023-03-29T11:46:46.867Z,14.00
2023-03-29T11:50:22.808Z,10.20
2023-03-29T11:53:57.549Z,11.30
2023-03-29T11:57:27.927Z,42.40
2023-03-29T12:00:59.678Z,8.90
2023-03-29T12:04:32.376Z,9.70
2023-03-29T12:08:06.284Z,17.10
2023-03-29T12:11:39.195Z,9.70
2023-03-29T12:15:12.127Z,13.20
2023-03-29T12:18:45.333Z,11.20
2023-03-29T12:22:12.838Z,8.30
2023-03-29T12:25:54.592Z,12.30
2023-03-29T12:29:38.137Z,8.60
2023-03-29T12:33:22.496Z,10.60
2023-03-29T12:37:42.489Z,11.80
2023-03-29T12:41:29.349Z,17.90
2023-03-29T12:45:23.143Z,15.70
2023-03-29T12:48:54.396Z,17.90
2023-03-29T12:52:28.299Z,11.40
2023-03-29T12:56:11.625Z,13.70
2023-03-29T12:59:44.994Z,13.60
2023-03-29T13:03:29.781Z,12.10
2023-03-29T13:07:06.114Z,13.50
2023-03-29T13:10:41.153Z,17.30
2023-03-29T13:14:15.623Z,13.10
2023-03-29T13:17:52.375Z,15.50
2023-03-29T13:21:27.146Z,12.70
2023-03-29T13:25:19.082Z,12.80
2023-03-29T13:29:02.395Z,12.00
2023-03-29T13:32:48.585Z,9.00
2023-03-29T13:36:25.793Z,9.00
2023-03-29T13:39:55.325Z,10.20
2023-03-29T13:47:29.556Z,9.80
2023-03-29T13:51:01.070Z,7.80
2023-03-29T13:54:33.727Z,9.00
2023-03-29T13:58:05.273Z,9.50
2023-03-29T14:01:40.399Z,10.60
2023-03-29T14:05:11.929Z,9.70
2023-03-29T14:08:43.436Z,7.40
2023-03-29T14:12:13.991Z,8.30
2023-03-29T14:15:50.718Z,9.60
2023-03-29T14:19:20.573Z,9.10
2023-03-29T14:22:48.459Z,14.70
2023-03-29T14:26:19.502Z,8.20
2023-03-29T14:29:49.412Z,8.00
2023-03-29T14:33:25.932Z,12.00
2023-03-29T14:36:54.307Z,9.60
2023-03-29T14:40:22.900Z,20.10
2023-03-29T14:43:51.655Z,11.00
2023-03-29T14:47:25.624Z,6.10
2023-03-29T14:50:54.176Z,7.60
2023-03-29T14:54:24.080Z,9.40
2023-03-29T15:01:21.538Z,7.80
2023-03-29T15:04:58.847Z,11.50
2023-03-29T15:08:34.013Z,26.90
2023-03-29T15:12:03.212Z,11.20
2023-03-29T15:15:32.101Z,7.60
2023-03-29T15:19:02.676Z,9.50
2023-03-29T15:22:35.884Z,6.60
2023-03-29T15:26:14.360Z,5.60
2023-03-29T15:29:43.011Z,9.40
2023-03-29T15:33:24.863Z,5.50
2023-03-29T15:36:52.071Z,6.70
2023-03-29T15:40:21.770Z,4.80
2023-03-29T15:43:48.815Z,3.30
2023-03-29T15:47:16.955Z,4.20
2023-03-29T15:50:46.824Z,4.00
2023-03-29T15:54:14.259Z,3.30
2023-03-29T15:57:42.036Z,7.30
2023-03-29T16:01:19.310Z,9.50
2023-03-29T16:04:46.675Z,6.60
2023-03-29T16:08:15.354Z,13.10
2023-03-29T16:11:43.949Z,8.40
2023-03-29T16:15:28.173Z,13.90
2023-03-29T16:18:55.206Z,10.30
2023-03-29T16:22:22.967Z,10.40
2023-03-29T16:25:49.977Z,8.90
2023-03-29T16:29:17.480Z,9.80
2023-03-29T16:32:45.948Z,13.10
2023-03-29T16:36:13.961Z,12.00
2023-03-29T16:39:40.986Z,13.50
2023-03-29T16:43:08.090Z,18.00
2023-03-29T16:46:35.295Z,16.70
2023-03-29T16:50:03.254Z,11.30
2023-03-29T16:53:30.735Z,13.90
2023-03-29T16:56:58.435Z,14.60
2023-03-29T17:00:26.140Z,15.00
2023-03-29T17:03:53.391Z,16.70
2023-03-29T17:07:20.663Z,9.80
2023-03-29T17:10:48.108Z,7.20
2023-03-29T17:14:15.494Z,18.00
2023-03-29T17:17:42.717Z,8.70
2023-03-29T17:21:10.676Z,11.50
2023-03-29T17:24:37.699Z,9.20
2023-03-29T17:28:05.383Z,10.80
2023-03-29T17:31:35.182Z,8.50
2023-03-29T17:38:29.754Z,10.70
2023-03-29T17:41:57.106Z,14.40
2023-03-29T17:45:24.141Z,12.70
2023-03-29T17:48:52.016Z,15.10
2023-03-29T17:52:19.425Z,22.60
2023-03-29T17:55:46.406Z,12.40
2023-03-29T17:59:13.522Z,19.40
2023-03-29T18:02:41.491Z,12.60
2023-03-29T18:06:09.946Z,12.90
2023-03-29T18:09:38.072Z,38.60
2023-03-29T18:13:05.619Z,17.80
2023-03-29T18:16:33.081Z,13.10
2023-03-29T18:20:01.331Z,12.30
2023-03-29T18:23:28.756Z,22.20
2023-03-29T18:26:57.890Z,15.10
2023-03-29T18:30:25.095Z,14.20
2023-03-29T18:34:00.986Z,16.40
2023-03-29T18:37:31.044Z,15.00
2023-03-29T18:40:59.420Z,24.00
2023-03-29T18:44:28.240Z,24.30
2023-03-29T18:47:56.325Z,15.40
2023-03-29T18:51:26.141Z,20.10
2023-03-29T18:58:23.981Z,24.70
2023-03-29T19:01:53.990Z,29.40
2023-03-29T19:05:23.028Z,30.40
2023-03-29T19:08:51.461Z,24.00
2023-03-29T19:12:20.106Z,26.80
2023-03-29T19:15:49.879Z,28.10
2023-03-29T19:19:18.641Z,25.00
2023-03-29T19:22:45.825Z,24.90
2023-03-29T19:26:13.389Z,21.10
2023-03-29T19:29:41.067Z,22.40
2023-03-29T19:33:08.090Z,26.70
2023-03-29T19:36:35.711Z,23.50
2023-03-29T19:40:06.814Z,23.20
2023-03-29T19:43:34.033Z,21.90
2023-03-29T19:47:01.166Z,19.10
2023-03-29T19:50:28.357Z,22.70
2023-03-29T19:53:55.857Z,22.60
2023-03-29T19:57:23.311Z,28.50
2023-03-29T20:00:50.921Z,27.80
2023-03-29T20:04:18.490Z,26.00
2023-03-29T20:07:45.694Z,23.40
2023-03-29T20:11:13.736Z,30.40
2023-03-29T20:14:43.355Z,31.00
2023-03-29T20:21:37.486Z,24.20
2023-03-29T20:25:04.994Z,33.60
2023-03-29T20:28:32.131Z,21.90
2023-03-29T20:31:59.442Z,30.30
2023-03-29T20:35:27.646Z,26.20
2023-03-29T20:38:56.467Z,28.40
2023-03-29T20:42:24.713Z,23.90
2023-03-29T20:45:53.904Z,25.00
2023-03-29T20:49:26.384Z,25.00
2023-03-29T20:52:55.235Z,23.30
2023-03-29T20:56:26.142Z,23.70
2023-03-29T20:59:53.566Z,28.20
2023-03-29T21:03:21.044Z,26.60
2023-03-29T21:06:49.730Z,26.70
2023-03-29T21:10:18.208Z,35.90
2023-03-29T21:13:45.311Z,30.30
2023-03-29T21:17:12.605Z,24.70
2023-03-29T21:20:40.557Z,23.40
2023-03-29T21:24:08.714Z,21.80
2023-03-29T21:27:35.702Z,23.90
2023-03-29T21:31:07.040Z,22.60
2023-03-29T21:34:34.233Z,22.30
2023-03-29T21:38:01.262Z,22.00
2023-03-29T21:41:28.264Z,25.20
2023-03-29T21:44:55.856Z,22.90
2023-03-29T21:48:22.870Z,24.30
2023-03-29T21:51:49.900Z,25.80
2023-03-29T21:55:18.103Z,22.50
2023-03-29T21:58:45.548Z,27.90
2023-03-29T22:02:12.694Z,24.40
2023-03-29T22:05:39.867Z,24.10
2023-03-29T22:09:07.061Z,27.50
2023-03-29T22:12:37.165Z,24.80
2023-03-29T22:16:05.505Z,26.30
2023-03-29T22:19:32.716Z,30.90
2023-03-29T22:22:59.862Z,27.20
2023-03-29T22:26:29.231Z,26.00
2023-03-29T22:29:56.488Z,26.10
2023-03-29T22:33:23.625Z,25.00
2023-03-29T22:36:51.800Z,25.20
2023-03-29T22:40:19.297Z,24.90
2023-03-29T22:43:46.964Z,28.00
2023-03-29T22:47:14.166Z,28.90
2023-03-29T22:50:43.000Z,25.70
2023-03-29T22:54:10.326Z,29.10
2023-03-29T22:57:37.510Z,27.30
2023-03-29T23:01:05.229Z,28.60
2023-03-29T23:04:32.926Z,29.50
2023-03-29T23:08:00.109Z,28.20
2023-03-29T23:11:27.724Z,28.80
2023-03-29T23:14:55.970Z,27.90
2023-03-29T23:18:24.092Z,24.70
2023-03-29T23:21:52.850Z,29.20
2023-03-29T23:25:19.975Z,24.10
2023-03-29T23:28:47.051Z,24.00
2023-03-29T23:32:15.661Z,22.30
2023-03-29T23:35:43.756Z,20.70
2023-03-29T23:39:10.732Z,23.70
2023-03-29T23:42:39.112Z,26.40
2023-03-29T23:46:08.185Z,24.90
2023-03-29T23:49:36.311Z,23.40
2023-03-29T23:53:03.368Z,23.40
2023-03-29T23:56:30.580Z,26.70
